createdAt,value
2019-04-19T03:16:26.779Z,99.90
2019-04-19T03:18:45.090Z,99.90
2019-04-19T03:21:23.494Z,99.90
2019-04-19T03:23:53.483Z,99.90
2019-04-19T03:26:20.773Z,99.90
2019-04-19T03:28:44.934Z,99.90
2019-04-19T03:31:36.173Z,99.90
2019-04-19T03:34:02.839Z,99.90
2019-04-19T03:36:24.881Z,99.90
2019-04-19T03:39:00.099Z,99.90
2019-04-19T03:41:51.099Z,99.90
2019-04-19T03:44:25.479Z,99.90
2019-04-19T03:52:11.674Z,99.90
2019-04-19T03:54:31.401Z,99.90
2019-04-19T03:56:57.352Z,99.90
2019-04-19T03:59:12.622Z,99.90
2019-04-19T04:01:46.388Z,99.90
2019-04-19T04:04:18.890Z,99.90
2019-04-19T04:06:45.646Z,99.90
2019-04-19T04:09:20.373Z,99.90
2019-04-19T04:12:03.280Z,99.90
2019-04-19T04:14:52.934Z,99.90
2019-04-19T04:17:12.284Z,99.90
2019-04-19T04:19:41.704Z,99.90
2019-04-19T04:22:18.579Z,99.90
2019-04-19T04:24:53.383Z,99.90
2019-04-19T04:27:26.211Z,99.90
2019-04-19T04:29:52.602Z,99.90
2019-04-19T04:32:22.933Z,99.90
2019-04-19T04:34:56.700Z,99.90
2019-04-19T04:37:30.738Z,99.90
2019-04-19T04:39:47.239Z,99.90
2019-04-19T04:42:26.561Z,99.90
2019-04-19T04:45:15.182Z,99.90
2019-04-19T04:47:53.645Z,99.90
2019-04-19T04:50:44.220Z,99.90
2019-04-19T04:52:58.767Z,99.90
2019-04-19T04:55:36.709Z,99.90
2019-04-19T04:58:07.061Z,99.90
2019-04-19T05:00:47.249Z,99.90
2019-04-19T05:03:22.968Z,99.90
2019-04-19T05:05:54.965Z,99.90
2019-04-19T05:08:24.586Z,99.90
2019-04-19T05:10:56.883Z,99.90
2019-04-19T05:13:27.705Z,99.90
2019-04-19T05:15:58.306Z,99.90
2019-04-19T05:18:32.141Z,99.90
2019-04-19T05:20:55.841Z,99.90
2019-04-19T05:23:29.050Z,99.90
2019-04-19T05:26:02.765Z,99.90
2019-04-19T05:28:33.599Z,99.90
2019-04-19T05:30:54.732Z,99.90
2019-04-19T05:33:27.741Z,99.90
2019-04-19T05:36:11.234Z,99.90
2019-04-19T05:38:47.761Z,99.90
2019-04-19T05:41:29.733Z,99.90
2019-04-19T05:44:35.856Z,99.90
2019-04-19T05:47:01.719Z,99.90
2019-04-19T05:49:31.565Z,99.90
2019-04-19T05:52:03.255Z,99.90
2019-04-19T05:54:16.711Z,99.90
2019-04-19T05:56:51.744Z,99.90
2019-04-19T05:59:30.659Z,99.90
2019-04-19T06:02:02.790Z,99.90
2019-04-19T06:04:38.769Z,99.90
2019-04-19T06:07:09.502Z,99.90
2019-04-19T06:09:19.637Z,99.90
2019-04-19T06:11:49.730Z,99.90
2019-04-19T06:14:45.053Z,99.90
2019-04-19T06:17:24.977Z,99.90
2019-04-19T06:19:57.080Z,99.90
2019-04-19T06:22:29.912Z,99.90
2019-04-19T06:25:04.578Z,99.90
2019-04-19T06:27:43.361Z,99.90
2019-04-19T06:30:10.103Z,99.90
2019-04-19T06:32:40.835Z,99.90
2019-04-19T06:35:02.418Z,99.90
2019-04-19T06:37:22.214Z,99.90
2019-04-19T06:39:52.252Z,99.90
2019-04-19T06:42:31.897Z,99.90
2019-04-19T06:45:09.384Z,99.80
2019-04-19T06:47:29.774Z,98.90
2019-04-19T06:49:54.014Z,97.90
2019-04-19T06:52:27.137Z,96.60
2019-04-19T06:54:53.657Z,95.10
2019-04-19T06:57:30.078Z,93.70
2019-04-19T07:00:06.075Z,92.80
2019-04-19T07:02:24.530Z,91.30
2019-04-19T07:05:08.946Z,90.40
2019-04-19T07:07:43.957Z,90.20
2019-04-19T07:10:25.472Z,86.40
2019-04-19T07:12:48.147Z,85.30
2019-04-19T07:15:25.880Z,84.10
2019-04-19T07:17:44.332Z,83.30
2019-04-19T07:20:15.171Z,84.10
2019-04-19T07:22:48.328Z,82.20
2019-04-19T07:25:26.113Z,80.10
2019-04-19T07:27:40.292Z,83.70
2019-04-19T07:30:03.523Z,79.20
2019-04-19T07:32:38.811Z,79.50
2019-04-19T07:35:16.790Z,76.60
2019-04-19T07:37:54.424Z,76.10
2019-04-19T07:40:26.960Z,74.60
2019-04-19T07:42:54.586Z,73.00
2019-04-19T07:46:00.888Z,72.60
2019-04-19T07:48:15.964Z,72.90
2019-04-19T07:50:51.823Z,72.00
2019-04-19T07:53:20.323Z,68.70
2019-04-19T07:55:55.420Z,70.80
2019-04-19T07:58:43.599Z,71.50
2019-04-19T08:01:18.956Z,70.30
2019-04-19T08:03:47.844Z,68.50
2019-04-19T08:06:22.901Z,70.10
2019-04-19T08:11:16.945Z,64.40
2019-04-19T08:16:14.300Z,67.10
2019-04-19T08:28:33.189Z,61.20
2019-04-19T08:31:01.823Z,60.30
2019-04-19T08:33:27.518Z,59.40
2019-04-19T08:35:59.505Z,58.50
2019-04-19T08:38:29.551Z,57.30
2019-04-19T08:41:11.854Z,58.40
2019-04-19T08:43:49.480Z,57.40
2019-04-19T08:46:04.955Z,55.40
2019-04-19T08:48:57.143Z,57.40
2019-04-19T08:51:45.607Z,56.20
2019-04-19T08:54:37.479Z,54.90
2019-04-19T08:56:59.012Z,56.10
2019-04-19T08:59:42.303Z,55.90
2019-04-19T09:02:05.603Z,54.90
2019-04-19T09:04:34.684Z,53.30
2019-04-19T09:09:40.713Z,53.90
2019-04-19T09:12:14.686Z,54.00
2019-04-19T09:14:43.675Z,55.10
2019-04-19T09:17:36.136Z,51.80
2019-04-19T09:20:00.967Z,50.40
2019-04-19T09:22:10.926Z,50.50
2019-04-19T09:24:39.806Z,50.10
2019-04-19T09:27:11.220Z,50.10
2019-04-19T09:29:45.091Z,50.00
2019-04-19T09:32:06.291Z,50.10
2019-04-19T09:34:30.058Z,47.30
2019-04-19T09:37:11.191Z,47.20
2019-04-19T09:39:42.497Z,47.10
2019-04-19T09:42:13.838Z,47.60
2019-04-19T09:44:41.100Z,47.10
2019-04-19T09:47:05.572Z,44.20
2019-04-19T09:49:49.019Z,45.90
2019-04-19T09:52:33.211Z,47.50
2019-04-19T09:54:57.469Z,47.00
2019-04-19T09:57:29.024Z,44.20
2019-04-19T09:59:39.640Z,44.90
2019-04-19T10:02:11.407Z,45.30
2019-04-19T10:04:41.975Z,43.90
2019-04-19T10:07:11.298Z,43.60
2019-04-19T10:09:40.795Z,43.40
2019-04-19T10:12:11.173Z,44.90
2019-04-19T10:14:41.582Z,43.80
2019-04-19T10:17:20.507Z,44.70
2019-04-19T10:19:50.754Z,45.20
2019-04-19T10:22:20.833Z,41.60
2019-04-19T10:24:52.874Z,41.10
2019-04-19T10:27:31.183Z,40.00
2019-04-19T10:30:02.007Z,42.50
2019-04-19T10:32:33.196Z,41.20
2019-04-19T10:35:02.348Z,38.10
2019-04-19T10:37:31.686Z,36.60
2019-04-19T10:40:02.019Z,38.90
2019-04-19T10:42:31.597Z,38.80
2019-04-19T10:45:00.821Z,36.70
2019-04-19T10:47:29.797Z,36.80
2019-04-19T10:50:14.575Z,37.80
2019-04-19T10:52:29.694Z,39.20
2019-04-19T10:54:59.397Z,37.50
2019-04-19T10:57:29.738Z,37.00
2019-04-19T11:00:03.006Z,37.60
2019-04-19T11:02:36.631Z,37.60
2019-04-19T11:05:07.639Z,38.70
2019-04-19T11:07:39.888Z,36.70
2019-04-19T11:10:09.695Z,36.30
2019-04-19T11:12:38.958Z,35.20
2019-04-19T11:15:08.741Z,37.10
2019-04-19T11:17:38.147Z,35.80
2019-04-19T11:20:20.130Z,37.20
2019-04-19T11:22:39.861Z,35.50
2019-04-19T11:25:10.200Z,35.90
2019-04-19T11:27:39.548Z,34.20
2019-04-19T11:30:19.202Z,34.00
2019-04-19T11:32:49.750Z,34.70
2019-04-19T11:35:19.366Z,33.70
2019-04-19T11:37:49.109Z,33.40
2019-04-19T11:40:19.565Z,31.20
2019-04-19T11:42:49.023Z,33.00
2019-04-19T11:45:19.674Z,33.80
2019-04-19T11:47:49.183Z,33.10
2019-04-19T11:50:18.352Z,33.20
2019-04-19T11:53:06.422Z,32.70
2019-04-19T11:55:38.300Z,34.10
2019-04-19T11:58:08.676Z,32.80
2019-04-19T12:00:58.609Z,32.20
2019-04-19T12:03:30.011Z,32.40
2019-04-19T12:06:00.311Z,32.80
2019-04-19T12:08:30.707Z,33.20
2019-04-19T12:11:00.285Z,32.10
2019-04-19T12:13:30.697Z,33.50
2019-04-19T12:16:01.027Z,32.20
2019-04-19T12:18:30.523Z,31.90
2019-04-19T12:21:00.848Z,32.00
2019-04-19T12:23:30.147Z,32.60
2019-04-19T12:25:59.736Z,33.50
2019-04-19T12:28:29.972Z,31.40
2019-04-19T12:30:59.045Z,31.60
2019-04-19T12:33:29.162Z,31.80
2019-04-19T12:35:59.221Z,31.80
2019-04-19T12:38:28.347Z,31.10
2019-04-19T12:41:00.079Z,30.90
2019-04-19T12:43:29.960Z,30.00
2019-04-19T12:45:59.385Z,30.50
2019-04-19T12:48:28.388Z,31.00
2019-04-19T12:50:58.267Z,31.00
2019-04-19T12:53:28.630Z,30.10
2019-04-19T12:55:57.970Z,31.90
2019-04-19T12:58:27.994Z,31.60
2019-04-19T13:01:14.534Z,30.60
2019-04-19T13:04:18.173Z,31.50
2019-04-19T13:06:54.610Z,29.30
2019-04-19T13:09:24.395Z,29.30
2019-04-19T13:11:54.745Z,30.00
2019-04-19T13:14:23.951Z,29.10
2019-04-19T13:16:52.879Z,29.80
2019-04-19T13:19:22.762Z,29.50
2019-04-19T13:21:52.308Z,30.90
2019-04-19T13:24:22.541Z,29.80
2019-04-19T13:26:51.747Z,30.60
2019-04-19T13:29:20.699Z,31.60
2019-04-19T13:31:49.703Z,28.80
2019-04-19T13:34:19.040Z,30.00
2019-04-19T13:36:57.633Z,29.60
2019-04-19T13:39:40.539Z,29.40
2019-04-19T13:42:12.858Z,29.30
2019-04-19T13:44:43.092Z,29.80
2019-04-19T13:47:12.989Z,29.60
2019-04-19T13:49:42.556Z,29.80
2019-04-19T13:52:12.663Z,30.20
2019-04-19T13:54:42.868Z,29.90
2019-04-19T13:57:13.273Z,29.60
2019-04-19T13:59:49.066Z,29.90
2019-04-19T14:02:14.531Z,29.90
2019-04-19T14:04:43.819Z,30.70
2019-04-19T14:07:12.927Z,30.80
2019-04-19T14:09:43.266Z,29.50
2019-04-19T14:12:13.422Z,30.00
2019-04-19T14:14:42.642Z,29.00
2019-04-19T14:17:11.866Z,29.20
2019-04-19T14:19:41.069Z,30.50
2019-04-19T14:22:11.191Z,30.80
2019-04-19T14:24:40.378Z,32.00
2019-04-19T14:27:10.907Z,30.40
2019-04-19T14:29:41.406Z,30.00
2019-04-19T14:32:11.611Z,30.50
2019-04-19T14:34:40.871Z,30.00
2019-04-19T14:37:13.554Z,30.30
2019-04-19T14:39:40.971Z,29.90
2019-04-19T14:42:10.047Z,30.70
2019-04-19T14:44:39.808Z,30.50
2019-04-19T14:47:09.028Z,29.80
2019-04-19T14:49:38.839Z,29.90
2019-04-19T14:52:08.056Z,31.50
2019-04-19T14:54:38.061Z,31.00
2019-04-19T14:57:07.337Z,32.90
2019-04-19T14:59:36.789Z,30.50
2019-04-19T15:02:15.929Z,30.60
2019-04-19T15:04:48.908Z,30.60
2019-04-19T15:07:18.662Z,30.50
2019-04-19T15:09:47.956Z,30.50
2019-04-19T15:12:18.460Z,30.10
2019-04-19T15:14:47.796Z,31.20
2019-04-19T15:17:17.179Z,32.20
2019-04-19T15:19:46.869Z,32.10
2019-04-19T15:22:17.001Z,33.10
2019-04-19T15:24:47.153Z,32.20
2019-04-19T15:27:16.923Z,31.20
2019-04-19T15:29:47.585Z,32.40
2019-04-19T15:32:18.001Z,32.40
2019-04-19T15:34:47.762Z,32.20
2019-04-19T15:37:18.056Z,32.30
2019-04-19T15:39:47.327Z,31.90
2019-04-19T15:42:16.474Z,32.50
2019-04-19T15:44:46.832Z,33.10
2019-04-19T15:47:16.886Z,33.00
2019-04-19T15:49:46.164Z,33.10
2019-04-19T15:52:15.426Z,34.50
2019-04-19T15:54:45.849Z,34.80
2019-04-19T15:57:16.292Z,35.30
2019-04-19T15:59:45.422Z,35.90
2019-04-19T16:02:33.934Z,36.00
2019-04-19T16:05:22.079Z,35.70
2019-04-19T16:08:00.809Z,36.90
2019-04-19T16:10:46.962Z,35.80
2019-04-19T16:13:16.114Z,35.30
2019-04-19T16:15:45.095Z,34.90
2019-04-19T16:18:14.215Z,36.10
2019-04-19T16:20:46.873Z,37.00
2019-04-19T16:23:14.234Z,36.40
2019-04-19T16:25:44.361Z,36.50
2019-04-19T16:28:15.136Z,37.20
2019-04-19T16:30:44.262Z,37.40
2019-04-19T16:33:13.603Z,37.60
2019-04-19T16:35:42.771Z,37.30
2019-04-19T16:38:12.006Z,38.50
2019-04-19T16:40:41.160Z,38.40
2019-04-19T16:43:11.180Z,38.90
2019-04-19T16:45:41.945Z,39.40
2019-04-19T16:48:11.616Z,39.10
2019-04-19T16:50:42.851Z,40.00
2019-04-19T16:53:12.107Z,40.20
2019-04-19T16:55:41.493Z,40.50
2019-04-19T16:58:10.606Z,40.20
2019-04-19T17:00:43.018Z,41.20
2019-04-19T17:03:12.330Z,41.20
2019-04-19T17:05:42.297Z,40.30
2019-04-19T17:08:11.566Z,40.10
2019-04-19T17:10:40.730Z,40.40
2019-04-19T17:13:10.749Z,40.60
2019-04-19T17:16:05.078Z,41.00
2019-04-19T17:18:59.165Z,41.20
2019-04-19T17:21:28.425Z,42.00
2019-04-19T17:23:58.613Z,42.40
2019-04-19T17:26:28.900Z,42.30
2019-04-19T17:28:59.073Z,42.30
2019-04-19T17:31:28.271Z,43.20
2019-04-19T17:33:58.028Z,42.90
2019-04-19T17:36:28.329Z,43.30
2019-04-19T17:38:58.751Z,43.70
2019-04-19T17:41:28.366Z,44.10
2019-04-19T17:43:57.500Z,44.00
2019-04-19T17:46:26.755Z,44.20
2019-04-19T17:48:56.901Z,44.20
2019-04-19T17:51:27.309Z,45.80
2019-04-19T17:53:56.461Z,44.30
2019-04-19T17:56:25.442Z,44.50
2019-04-19T17:58:56.098Z,45.00
2019-04-19T18:01:26.223Z,45.30
2019-04-19T18:03:56.268Z,44.80
2019-04-19T18:06:25.914Z,45.10
2019-04-19T18:09:02.210Z,45.60
2019-04-19T18:11:30.826Z,46.00
2019-04-19T18:13:59.238Z,45.70
2019-04-19T18:16:28.356Z,46.10
2019-04-19T18:19:00.012Z,47.10
2019-04-19T18:21:32.791Z,46.60
2019-04-19T18:24:09.297Z,47.00
2019-04-19T18:26:33.231Z,47.50
2019-04-19T18:29:01.020Z,47.90
2019-04-19T18:31:36.143Z,47.50
2019-04-19T18:34:06.755Z,47.20
2019-04-19T18:36:32.562Z,48.00
2019-04-19T18:39:02.175Z,47.60
2019-04-19T18:41:31.372Z,47.80
2019-04-19T18:44:12.976Z,47.90
2019-04-19T18:46:31.275Z,48.40
2019-04-19T18:49:00.397Z,48.90
2019-04-19T18:51:36.555Z,48.40
2019-04-19T18:54:11.703Z,48.50
2019-04-19T18:56:32.959Z,48.40
2019-04-19T18:59:11.012Z,48.60
2019-04-19T19:01:37.536Z,49.20
2019-04-19T19:04:05.025Z,49.30
2019-04-19T19:06:38.403Z,49.70
2019-04-19T19:09:09.693Z,50.30
2019-04-19T19:11:38.076Z,50.40
2019-04-19T19:14:11.061Z,50.80
2019-04-19T19:16:39.883Z,50.50
2019-04-19T19:19:18.893Z,51.10
2019-04-19T19:21:43.719Z,50.90
2019-04-19T19:24:47.177Z,51.00
2019-04-19T19:27:00.230Z,51.20
2019-04-19T19:29:12.597Z,51.40
2019-04-19T19:31:43.018Z,51.60
2019-04-19T19:34:13.625Z,51.90
2019-04-19T19:36:48.560Z,52.10
2019-04-19T19:39:24.117Z,53.00
2019-04-19T19:44:36.424Z,53.00
2019-04-19T19:47:27.307Z,52.70
2019-04-19T19:49:48.934Z,53.90
2019-04-19T19:52:17.313Z,53.60
2019-04-19T19:54:54.247Z,54.70
2019-04-19T19:57:18.479Z,54.60
2019-04-19T19:59:37.941Z,55.50
2019-04-19T20:02:17.478Z,55.40
2019-04-19T20:04:34.242Z,56.20
2019-04-19T20:07:08.369Z,56.00
2019-04-19T20:09:36.126Z,55.60
2019-04-19T20:12:13.849Z,55.80
2019-04-19T20:14:39.094Z,57.00
2019-04-19T20:17:11.727Z,55.80
2019-04-19T20:19:39.361Z,57.20
2019-04-19T20:22:09.261Z,56.60
2019-04-19T20:24:52.739Z,56.90
2019-04-19T20:27:16.232Z,57.10
2019-04-19T20:29:43.775Z,58.50
2019-04-19T20:32:15.997Z,57.30
2019-04-19T20:34:43.702Z,59.20
2019-04-19T20:37:16.912Z,58.80
2019-04-19T20:39:46.733Z,59.20
2019-04-19T20:42:25.184Z,57.90
2019-04-19T20:44:54.366Z,59.10
2019-04-19T20:47:20.500Z,57.60
2019-04-19T20:49:49.953Z,57.40
2019-04-19T20:52:39.104Z,59.20
2019-04-19T20:55:15.242Z,59.20
2019-04-19T20:57:52.122Z,61.60
2019-04-19T21:00:12.925Z,59.30
2019-04-19T21:02:42.393Z,60.00
2019-04-19T21:05:13.679Z,59.70
2019-04-19T21:07:46.385Z,59.90
2019-04-19T21:10:16.798Z,60.00
2019-04-19T21:12:44.981Z,61.50
2019-04-19T21:15:22.643Z,62.00
2019-04-19T21:17:49.312Z,61.90
2019-04-19T21:20:19.811Z,62.50
2019-04-19T21:22:46.603Z,64.90
2019-04-19T21:25:21.387Z,62.30
2019-04-19T21:27:51.323Z,63.40
2019-04-19T21:30:18.700Z,62.70
2019-04-19T21:32:50.084Z,64.80
2019-04-19T21:35:20.881Z,64.30
2019-04-19T21:37:51.100Z,65.70
2019-04-19T21:40:28.307Z,66.00
2019-04-19T21:42:56.125Z,64.20
2019-04-19T21:45:23.247Z,63.70
2019-04-19T21:47:55.065Z,63.30
2019-04-19T21:50:29.563Z,63.90
2019-04-19T21:53:00.143Z,63.80
2019-04-19T21:55:30.903Z,64.20
2019-04-19T21:57:55.862Z,64.60
2019-04-19T22:00:56.225Z,64.10
2019-04-19T22:03:21.983Z,65.10
2019-04-19T22:05:49.239Z,64.70
2019-04-19T22:08:23.456Z,64.10
2019-04-19T22:10:50.423Z,64.80
2019-04-19T22:13:20.218Z,65.90
2019-04-19T22:15:53.692Z,64.70
2019-04-19T22:18:21.442Z,65.80
2019-04-19T22:20:56.174Z,66.10
2019-04-19T22:23:22.445Z,66.40
2019-04-19T22:26:05.108Z,66.40
2019-04-19T22:28:23.623Z,66.30
